Time;durP1;ratioP1;P1;durP2;ratioP2;P2;SDS_P1;SDS_P2;PMS_P1;PMS_P2;Temp;Humidity;BMP_temperature;BMP_pressure;BME280_temperature;BME280_humidity;BME280_pressure;Samples;Min_cycle;Max_cycle;Signal;HPM_P1;HPM_P2
2021/09/24 00:01:54;;;;;;;;;;;;;;;15.72;51.67;100693.13;4970872;28;96438;-91
2021/09/24 00:07:02;;;;;;;;;;;;;;;16.76;49.39;100690.44;5008411;28;99811;-90
2021/09/24 00:09:29;;;;;;;;;;;;;;;16.82;49.22;100673.19;5010998;28;96827;-91
2021/09/24 00:11:56;;;;;;;;;;;;;;;16.96;49.03;100682.06;4993138;28;96721;-91
2021/09/24 00:14:24;;;;;;;;;;;;;;;17.06;48.89;100677.88;5005188;28;97032;-90
2021/09/24 00:16:51;;;;;;;;;;;;;;;16.72;50.25;100684.47;5008516;28;100030;-90
2021/09/24 00:19:18;;;;;;;;;;;;;;;16.54;50.54;100695.38;5006805;28;96823;-91
2021/09/24 00:21:45;;;;;;;;;;;;;;;16.72;50.69;100691.59;5013370;28;96696;-90
2021/09/24 00:24:15;;;;;;;;;;;;;;;16.79;50.42;100698.28;5010685;28;99702;-90
2021/09/24 00:26:43;;;;;;;;;;;;;;;16.79;50.37;100690.28;5011086;28;98693;-90
2021/09/24 00:29:10;;;;;;;;;;;;;;;16.68;51.12;100700.72;5012601;28;96667;-89
2021/09/24 00:36:59;;;;;;;;;;;;;;;16.16;53.04;100706.50;5011002;28;99881;-90
2021/09/24 00:42:07;;;;;;;;;;;;;;;16.41;52.07;100710.41;5010253;28;96713;-89
2021/09/24 00:44:39;;;;;;;;;;;;;;;16.34;52.52;100707.25;4993092;28;98067;-89
2021/09/24 00:47:11;;;;;;;;;;;;;;;17.06;50.50;100711.72;5001040;28;97977;-88
2021/09/24 00:49:37;;;;;;;;;;;;;;;16.89;50.64;100702.06;5003976;28;96007;-88
2021/09/24 00:52:05;;;;;;;;;;;;;;;16.68;51.33;100692.72;5004018;28;96586;-90
2021/09/24 00:54:32;;;;;;;;;;;;;;;16.39;51.75;100701.63;5021106;28;98158;-90
2021/09/24 00:57:04;;;;;;;;;;;;;;;16.00;52.93;100700.38;4984939;28;97879;-90
2021/09/24 00:59:32;;;;;;;;;;;;;;;16.70;51.41;100704.16;5030632;28;96623;-91
2021/09/24 01:01:59;;;;;;;;;;;;;;;16.77;50.35;100689.50;5035019;28;96755;-90
2021/09/24 01:04:31;;;;;;;;;;;;;;;16.28;52.14;100708.44;5023803;28;96729;-90
2021/09/24 01:06:59;;;;;;;;;;;;;;;16.22;52.51;100698.13;5023425;28;99035;-87
2021/09/24 01:09:26;;;;;;;;;;;;;;;16.26;51.83;100694.38;5016272;28;95931;-90
2021/09/24 01:11:53;;;;;;;;;;;;;;;16.58;51.45;100694.22;5009997;28;96668;-89
2021/09/24 01:14:26;;;;;;;;;;;;;;;16.29;51.95;100702.16;5005254;28;99097;-90
2021/09/24 01:16:55;;;;;;;;;;;;;;;16.20;52.45;100705.41;5012367;28;96912;-89
2021/09/24 01:19:25;;;;;;;;;;;;;;;16.52;51.70;100700.78;5013019;28;96798;-89
2021/09/24 01:22:11;;;;;;;;;;;;;;;15.92;53.30;100699.97;4985601;28;96628;-90
2021/09/24 01:24:52;;;;;;;;;;;;;;;16.18;52.21;100701.09;5013259;28;97423;-90
2021/09/24 01:27:26;;;;;;;;;;;;;;;16.12;52.75;100701.47;5023203;28;98015;-89
2021/09/24 01:29:55;;;;;;;;;;;;;;;16.29;52.19;100712.81;5016605;28;96654;-89
2021/09/24 01:32:28;;;;;;;;;;;;;;;16.69;51.27;100705.97;5023731;28;96912;-89
2021/09/24 01:40:32;;;;;;;;;;;;;;;16.68;51.44;100719.41;5007525;28;96715;-90
2021/09/24 01:43:04;;;;;;;;;;;;;;;16.72;51.08;100732.47;5011497;28;96900;-90
2021/09/24 01:45:33;;;;;;;;;;;;;;;17.05;50.40;100737.56;4992178;28;96793;-90
2021/09/24 01:48:00;;;;;;;;;;;;;;;16.79;51.20;100729.44;5011391;28;99732;-90
2021/09/24 01:50:27;;;;;;;;;;;;;;;16.93;50.73;100740.13;5009529;28;97815;-91
2021/09/24 01:52:55;;;;;;;;;;;;;;;16.83;51.01;100745.16;5011530;28;96848;-90
2021/09/24 01:55:25;;;;;;;;;;;;;;;16.46;51.79;100742.97;4992893;28;97560;-89
2021/09/24 01:57:58;;;;;;;;;;;;;;;16.78;51.39;100760.59;5007405;28;97631;-90
2021/09/24 02:00:26;;;;;;;;;;;;;;;16.74;51.36;100743.91;5015110;28;96750;-89
2021/09/24 02:02:54;;;;;;;;;;;;;;;16.49;52.05;100740.09;5011741;28;96618;-90
2021/09/24 02:05:21;;;;;;;;;;;;;;;17.05;50.71;100750.91;5011470;28;99722;-90
2021/09/24 02:10:32;;;;;;;;;;;;;;;16.51;52.38;100755.09;5008953;28;96732;-89
2021/09/24 02:13:03;;;;;;;;;;;;;;;16.63;51.99;100748.19;5010813;28;96690;-90
2021/09/24 02:15:32;;;;;;;;;;;;;;;16.56;52.61;100755.66;5013894;28;99110;-89
2021/09/24 02:18:04;;;;;;;;;;;;;;;16.14;53.53;100756.41;5015187;28;99987;-90
2021/09/24 02:20:30;;;;;;;;;;;;;;;16.07;53.85;100765.72;5018764;28;96366;-89
2021/09/24 02:23:07;;;;;;;;;;;;;;;16.37;53.56;100762.19;5021218;28;95991;-86
2021/09/24 02:25:33;;;;;;;;;;;;;;;15.45;56.32;100759.41;5020637;28;98297;-88
2021/09/24 02:28:04;;;;;;;;;;;;;;;15.72;55.80;100758.84;5020894;28;99396;-86
2021/09/24 02:30:46;;;;;;;;;;;;;;;16.41;53.85;100764.56;5021350;28;96139;-83
2021/09/24 02:33:13;;;;;;;;;;;;;;;16.52;53.08;100762.13;5020750;28;96543;-87
2021/09/24 02:35:43;;;;;;;;;;;;;;;17.23;51.48;100769.38;5017237;28;98604;-83
2021/09/24 02:38:10;;;;;;;;;;;;;;;16.54;53.01;100764.72;5016927;28;98016;-84
2021/09/24 02:45:57;;;;;;;;;;;;;;;15.58;56.19;100769.41;5019307;28;98534;-83
2021/09/24 02:48:26;;;;;;;;;;;;;;;15.92;55.50;100780.75;5019398;28;98025;-82
2021/09/24 02:50:55;;;;;;;;;;;;;;;15.81;55.94;100796.50;5003605;28;96918;-85
2021/09/24 02:53:23;;;;;;;;;;;;;;;16.16;54.67;100788.28;5021084;28;97567;-81
2021/09/24 02:58:30;;;;;;;;;;;;;;;17.01;52.34;100808.09;4991303;28;98488;-83
2021/09/24 03:03:54;;;;;;;;;;;;;;;16.93;52.56;100809.53;4991421;28;96444;-89
2021/09/24 03:06:22;;;;;;;;;;;;;;;17.35;51.63;100806.88;4999829;28;100010;-90
2021/09/24 03:08:51;;;;;;;;;;;;;;;16.85;52.80;100814.47;4999170;28;98497;-91
2021/09/24 03:11:18;;;;;;;;;;;;;;;16.91;52.25;100820.28;4995469;28;96414;-89
2021/09/24 03:16:26;;;;;;;;;;;;;;;16.39;54.11;100821.63;5012081;28;99758;-90
2021/09/24 03:19:09;;;;;;;;;;;;;;;16.79;53.06;100821.03;5011975;28;99899;-90
2021/09/24 03:21:38;;;;;;;;;;;;;;;16.84;52.66;100826.94;5018691;28;96777;-90
2021/09/24 03:24:05;;;;;;;;;;;;;;;17.06;52.30;100822.03;5035407;28;96430;-90
2021/09/24 03:29:13;;;;;;;;;;;;;;;16.61;53.76;100825.63;5015876;28;98514;-91
2021/09/24 03:39:27;;;;;;;;;;;;;;;16.62;54.04;100838.03;5240263;22;99757;-90
2021/09/24 03:42:06;;;;;;;;;;;;;;;16.85;53.37;100835.81;5002598;28;96056;-89
2021/09/24 03:44:35;;;;;;;;;;;;;;;16.18;54.74;100845.91;5002261;28;96476;-89
2021/09/24 03:49:50;;;;;;;;;;;;;;;16.42;54.34;100838.28;4990639;28;98254;-84
2021/09/24 03:52:21;;;;;;;;;;;;;;;16.31;54.98;100833.59;5002754;28;96374;-89
2021/09/24 03:54:51;;;;;;;;;;;;;;;16.61;54.02;100828.28;5003080;28;96008;-87
2021/09/24 04:05:24;;;;;;;;;;;;;;;16.18;55.49;100829.91;5001068;28;96532;-89
2021/09/24 04:07:51;;;;;;;;;;;;;;;15.88;56.12;100831.66;5001761;28;99562;-90
2021/09/24 04:10:33;;;;;;;;;;;;;;;16.41;54.95;100836.56;4999304;28;99428;-90
2021/09/24 04:13:04;;;;;;;;;;;;;;;15.64;57.04;100841.00;4995536;28;96704;-90
2021/09/24 04:15:31;;;;;;;;;;;;;;;15.91;56.15;100836.81;5002216;28;96444;-87
2021/09/24 04:20:39;;;;;;;;;;;;;;;15.94;56.40;100839.31;5001043;28;96437;-82
2021/09/24 04:23:14;;;;;;;;;;;;;;;15.51;57.75;100838.97;4985497;28;95967;-89
2021/09/24 04:25:42;;;;;;;;;;;;;;;15.49;57.83;100832.84;5002232;28;96716;-88
2021/09/24 04:28:17;;;;;;;;;;;;;;;15.79;57.07;100845.47;5002134;28;98303;-82
2021/09/24 04:30:44;;;;;;;;;;;;;;;15.82;57.00;100850.63;5001690;28;99636;-88
2021/09/24 04:33:13;;;;;;;;;;;;;;;16.55;54.85;100857.97;5002397;28;96370;-89
2021/09/24 04:35:44;;;;;;;;;;;;;;;16.27;55.47;100866.72;4998762;28;96712;-90
2021/09/24 04:38:12;;;;;;;;;;;;;;;16.77;54.20;100862.94;4980683;28;98242;-90
2021/09/24 04:40:47;;;;;;;;;;;;;;;16.02;56.19;100866.38;4982456;28;96889;-88
2021/09/24 04:43:17;;;;;;;;;;;;;;;16.19;55.90;100865.44;4999062;28;96539;-89
2021/09/24 04:45:46;;;;;;;;;;;;;;;15.65;57.24;100866.69;4999979;28;96068;-87
2021/09/24 04:48:16;;;;;;;;;;;;;;;15.97;56.35;100863.09;4999074;28;98930;-89
2021/09/24 04:50:43;;;;;;;;;;;;;;;16.37;55.47;100863.50;5001098;28;98068;-90
2021/09/24 04:53:10;;;;;;;;;;;;;;;16.53;55.01;100865.22;5001509;28;96309;-89
2021/09/24 04:55:38;;;;;;;;;;;;;;;16.38;54.65;100870.56;4980409;28;96859;-90
2021/09/24 04:58:13;;;;;;;;;;;;;;;16.21;55.92;100863.56;4980562;28;99313;-88
2021/09/24 05:00:56;;;;;;;;;;;;;;;16.15;55.77;100864.72;5000511;28;97877;-89
2021/09/24 05:03:38;;;;;;;;;;;;;;;16.47;54.70;100870.91;5001923;28;96381;-92
2021/09/24 05:08:51;;;;;;;;;;;;;;;15.79;56.90;100854.34;5110721;22;98361;-93
2021/09/24 05:11:20;;;;;;;;;;;;;;;15.91;56.54;100861.66;4992611;28;97603;-90
2021/09/24 05:13:50;;;;;;;;;;;;;;;15.70;57.55;100862.81;4980277;28;95837;-91
2021/09/24 05:16:17;;;;;;;;;;;;;;;15.90;56.76;100859.06;4981258;28;96508;-91
2021/09/24 05:21:26;;;;;;;;;;;;;;;16.64;54.73;100868.16;4994318;28;98326;-91
2021/09/24 05:26:37;;;;;;;;;;;;;;;16.09;56.27;100872.22;4978164;28;96901;-92
2021/09/24 05:29:05;;;;;;;;;;;;;;;16.18;55.84;100867.25;4971618;28;97865;-89
2021/09/24 05:31:34;;;;;;;;;;;;;;;16.27;55.68;100882.72;4990897;28;98082;-90
2021/09/24 05:34:03;;;;;;;;;;;;;;;16.23;55.92;100889.16;4991660;28;96650;-90
2021/09/24 05:36:36;;;;;;;;;;;;;;;16.10;55.91;100885.47;4993199;28;96963;-89
2021/09/24 05:39:06;;;;;;;;;;;;;;;16.30;55.79;100882.53;4992112;28;99013;-89
2021/09/24 05:41:34;;;;;;;;;;;;;;;16.30;55.84;100890.53;4993596;28;97988;-90
2021/09/24 05:49:25;;;;;;;;;;;;;;;16.70;54.47;100897.13;4996821;28;98890;-90
2021/09/24 05:51:57;;;;;;;;;;;;;;;16.06;56.16;100894.59;5000459;28;97990;-90
2021/09/24 05:54:27;;;;;;;;;;;;;;;16.36;55.54;100905.31;5001466;28;96405;-90
2021/09/24 05:56:55;;;;;;;;;;;;;;;16.50;55.16;100901.88;5000107;28;96354;-90
2021/09/24 06:02:03;;;;;;;;;;;;;;;16.17;55.85;100908.16;5002694;28;96458;-86
2021/09/24 06:04:29;;;;;;;;;;;;;;;16.71;54.41;100914.00;5001814;28;97216;-82
2021/09/24 06:06:58;;;;;;;;;;;;;;;16.65;54.34;100909.91;5001495;28;95988;-86
2021/09/24 06:09:32;;;;;;;;;;;;;;;15.87;56.85;100905.41;5000666;28;98217;-83
2021/09/24 06:17:21;;;;;;;;;;;;;;;16.74;54.35;100905.81;4986750;28;96712;-89
2021/09/24 06:19:47;;;;;;;;;;;;;;;16.21;55.94;100919.53;4984395;28;99304;-90
2021/09/24 06:22:29;;;;;;;;;;;;;;;16.59;54.84;100915.56;4991657;28;99442;-90
2021/09/24 06:25:20;;;;;;;;;;;;;;;16.64;54.70;100929.50;4993148;28;96711;-89
2021/09/24 06:33:29;;;;;;;;;;;;;;;16.28;55.60;100943.09;4995337;28;98491;-88
2021/09/24 06:38:38;;;;;;;;;;;;;;;16.88;54.18;100950.38;4994106;28;96617;-89
2021/09/24 06:41:05;;;;;;;;;;;;;;;17.12;53.51;100944.47;4994294;28;99479;-89
2021/09/24 06:43:32;;;;;;;;;;;;;;;16.00;56.61;100953.56;4996106;28;98699;-85
2021/09/24 06:46:11;;;;;;;;;;;;;;;16.89;54.44;100950.28;4994504;28;97104;-89
2021/09/24 06:51:19;;;;;;;;;;;;;;;16.73;54.67;100958.34;4972300;28;98613;-90
2021/09/24 06:53:51;;;;;;;;;;;;;;;16.87;54.57;100952.19;4972244;28;100898;-90
2021/09/24 06:56:20;;;;;;;;;;;;;;;16.76;54.87;100957.28;4971341;28;96583;-90
2021/09/24 06:58:55;;;;;;;;;;;;;;;16.90;54.60;100965.34;4974494;28;96748;-89
2021/09/24 07:01:37;;;;;;;;;;;;;;;16.52;55.55;100956.00;4973930;28;98764;-88
2021/09/24 07:04:06;;;;;;;;;;;;;;;16.43;56.01;100960.03;4974555;28;98737;-89
2021/09/24 07:06:36;;;;;;;;;;;;;;;16.55;55.68;100963.81;4981680;28;95971;-90
2021/09/24 07:09:04;;;;;;;;;;;;;;;16.68;55.58;100965.72;4974500;28;96946;-89
2021/09/24 07:14:13;;;;;;;;;;;;;;;16.98;54.67;100960.44;4986244;28;98404;-86
2021/09/24 07:19:22;;;;;;;;;;;;;;;16.49;56.00;100959.69;4980126;28;96568;-88
2021/09/24 07:21:48;;;;;;;;;;;;;;;16.27;56.73;100956.53;4974048;28;98252;-89
2021/09/24 07:24:17;;;;;;;;;;;;;;;17.09;54.68;100962.47;4968524;28;100064;-90
2021/09/24 07:27:01;;;;;;;;;;;;;;;17.09;54.54;100968.66;4964369;28;96588;-93
2021/09/24 07:29:28;;;;;;;;;;;;;;;17.02;54.79;100959.31;4959200;28;96753;-92
2021/09/24 07:31:56;;;;;;;;;;;;;;;16.49;56.03;100969.50;4970939;28;98484;-89
2021/09/24 07:40:02;;;;;;;;;;;;;;;16.32;56.88;100967.78;4970743;28;96694;-90
2021/09/24 07:42:28;;;;;;;;;;;;;;;16.81;55.03;100976.56;4968499;28;100260;-89
2021/09/24 07:44:55;;;;;;;;;;;;;;;17.54;53.30;100969.53;4971496;28;98774;-90
2021/09/24 07:47:21;;;;;;;;;;;;;;;17.98;51.99;100965.97;4972435;28;96624;-89
2021/09/24 07:49:48;;;;;;;;;;;;;;;17.79;52.02;100972.44;4971847;28;96632;-90
2021/09/24 08:05:57;;;;;;;;;;;;;;;18.17;50.56;100979.91;4981389;28;98755;-89
2021/09/24 08:08:24;;;;;;;;;;;;;;;18.31;49.97;100967.34;4983426;28;96672;-88
2021/09/24 08:13:38;;;;;;;;;;;;;;;18.54;49.39;100976.59;4982137;28;98594;-83
2021/09/24 08:16:05;;;;;;;;;;;;;;;18.22;49.94;100967.97;4982640;28;98134;-86
2021/09/24 08:18:34;;;;;;;;;;;;;;;18.30;49.95;100975.50;4965463;28;96501;-87
2021/09/24 08:21:02;;;;;;;;;;;;;;;18.95;48.63;100973.03;4975477;28;95964;-87
2021/09/24 08:23:31;;;;;;;;;;;;;;;18.92;48.45;100978.59;4980434;28;97829;-86
2021/09/24 08:28:43;;;;;;;;;;;;;;;19.49;47.41;100976.53;4980321;28;96106;-87
2021/09/24 08:31:10;;;;;;;;;;;;;;;18.80;48.12;100972.25;4981290;28;96704;-87
2021/09/24 08:33:38;;;;;;;;;;;;;;;19.22;46.99;100973.88;4981011;28;98111;-88
2021/09/24 08:36:04;;;;;;;;;;;;;;;19.47;46.85;100979.31;4986063;28;98098;-89
2021/09/24 08:38:33;;;;;;;;;;;;;;;19.92;45.10;100974.38;4983284;28;96191;-85
2021/09/24 08:41:04;;;;;;;;;;;;;;;19.91;44.93;100978.03;4985450;28;96103;-82
2021/09/24 08:43:31;;;;;;;;;;;;;;;18.87;46.51;100973.56;4981627;28;100084;-85
2021/09/24 08:46:20;;;;;;;;;;;;;;;19.37;46.07;100971.94;4981504;28;98803;-84
2021/09/24 08:48:56;;;;;;;;;;;;;;;19.27;45.79;100987.81;4981534;28;96297;-88
2021/09/24 08:51:23;;;;;;;;;;;;;;;19.64;45.64;100988.00;4980201;28;96743;-90
2021/09/24 08:53:51;;;;;;;;;;;;;;;19.28;45.83;100988.66;4984177;28;99151;-90
2021/09/24 08:56:20;;;;;;;;;;;;;;;19.81;44.70;100987.69;4973556;28;99206;-89
2021/09/24 09:01:28;;;;;;;;;;;;;;;20.40;42.75;100985.28;4965461;28;96912;-89
2021/09/24 09:06:38;;;;;;;;;;;;;;;20.19;42.76;100984.97;4968974;28;99727;-89
2021/09/24 09:09:06;;;;;;;;;;;;;;;20.97;41.67;100985.50;4974210;28;96563;-90
2021/09/24 09:17:01;;;;;;;;;;;;;;;20.06;43.01;101000.22;4972376;28;98523;-90
2021/09/24 09:31:00;;;;;;;;;;;;;;;19.04;46.15;100996.53;4981446;28;96009;-89
2021/09/24 09:39:13;;;;;;;;;;;;;;;19.77;44.86;101019.22;4975989;28;96689;-90
2021/09/24 09:41:49;;;;;;;;;;;;;;;20.25;44.13;101014.91;4978346;28;96551;-91
2021/09/24 09:44:33;;;;;;;;;;;;;;;21.16;41.97;101010.03;4975207;28;96991;-89
2021/09/24 09:47:00;;;;;;;;;;;;;;;20.19;44.38;101009.97;4972866;28;99166;-90
2021/09/24 09:49:29;;;;;;;;;;;;;;;20.14;44.87;101013.97;4976909;28;100224;-91
2021/09/24 09:52:07;;;;;;;;;;;;;;;20.29;44.68;101020.91;4974740;28;96885;-89
2021/09/24 09:54:36;;;;;;;;;;;;;;;20.89;43.61;101015.59;4972183;28;96600;-88
2021/09/24 09:57:10;;;;;;;;;;;;;;;20.60;43.94;101019.59;4967622;28;97695;-89
2021/09/24 10:13:19;;;;;;;;;;;;;;;19.77;46.88;101024.56;4957145;28;96684;-91
2021/09/24 10:15:53;;;;;;;;;;;;;;;19.60;47.56;101021.34;4972335;28;96717;-90
2021/09/24 10:18:19;;;;;;;;;;;;;;;19.85;47.14;101016.84;4972436;28;98761;-89
2021/09/24 10:20:46;;;;;;;;;;;;;;;20.04;47.02;101016.41;4969803;28;98821;-89
2021/09/24 10:23:14;;;;;;;;;;;;;;;20.56;45.61;101010.03;4981573;28;96680;-90
2021/09/24 10:25:48;;;;;;;;;;;;;;;20.12;46.64;101014.06;4967631;28;96771;-91
2021/09/24 10:28:15;;;;;;;;;;;;;;;20.45;46.34;101005.44;4974623;28;100062;-90
2021/09/24 10:36:42;;;;;;;;;;;;;;;19.88;47.97;100994.34;4969867;28;96310;-91
2021/09/24 10:39:31;;;;;;;;;;;;;;;20.33;46.93;100998.28;4968620;28;97102;-94
2021/09/24 10:47:59;;;;;;;;;;;;;;;20.66;46.74;100997.66;4975818;28;96909;-93
2021/09/24 10:50:59;;;;;;;;;;;;;;;21.25;45.73;100998.59;4974046;28;98531;-91
2021/09/24 10:53:34;;;;;;;;;;;;;;;20.84;46.43;100993.63;4970941;28;97981;-93
2021/09/24 11:05:02;;;;;;;;;;;;;;;21.26;46.30;100991.41;4972306;28;96524;-94
2021/09/24 11:10:47;;;;;;;;;;;;;;;20.71;47.93;100990.13;4977465;28;97436;-89
2021/09/24 11:13:41;;;;;;;;;;;;;;;21.83;45.54;100989.56;4979698;28;99281;-89
2021/09/24 11:16:26;;;;;;;;;;;;;;;20.43;48.45;100993.97;4961064;28;99249;-87
2021/09/24 11:19:08;;;;;;;;;;;;;;;20.72;48.35;101002.59;4979853;28;96128;-86
2021/09/24 11:21:51;;;;;;;;;;;;;;;21.04;47.62;100990.28;4979709;28;96558;-89
2021/09/24 11:24:33;;;;;;;;;;;;;;;20.79;47.95;100985.06;4979119;28;98946;-84
2021/09/24 11:30:22;;;;;;;;;;;;;;;20.56;48.77;100996.59;4963584;28;96044;-92
2021/09/24 11:35:39;;;;;;;;;;;;;;;20.97;48.14;100994.41;4979678;28;99611;-81
2021/09/24 11:41:07;;;;;;;;;;;;;;;20.54;49.81;100990.50;4980050;28;96119;-89
2021/09/24 11:46:21;;;;;;;;;;;;;;;21.26;48.12;100975.28;4979783;28;98621;-90
2021/09/24 11:48:54;;;;;;;;;;;;;;;20.59;49.70;100973.09;4978264;28;98211;-92
2021/09/24 11:51:21;;;;;;;;;;;;;;;20.46;49.91;100984.84;4975445;28;96893;-92
2021/09/24 11:53:51;;;;;;;;;;;;;;;20.33;51.01;100981.34;4968774;28;96114;-91
2021/09/24 11:56:21;;;;;;;;;;;;;;;20.82;49.59;100982.13;4967117;28;98793;-91
2021/09/24 11:59:06;;;;;;;;;;;;;;;20.20;51.13;100984.88;4981226;28;99738;-92
2021/09/24 12:01:59;;;;;;;;;;;;;;;20.45;50.74;100977.75;4977581;28;96198;-91
2021/09/24 12:04:44;;;;;;;;;;;;;;;21.09;49.23;100981.88;4978294;28;96093;-93
2021/09/24 12:07:15;;;;;;;;;;;;;;;21.34;48.67;100975.53;4978165;28;97022;-93
2021/09/24 12:18:16;;;;;;;;;;;;;;;22.24;46.37;100974.69;4962582;28;96696;-94
2021/09/24 12:20:43;;;;;;;;;;;;;;;21.52;48.11;100979.50;4973283;28;98193;-92
2021/09/24 12:23:28;;;;;;;;;;;;;;;20.58;50.34;100975.88;4975404;28;97322;-92
2021/09/24 12:26:13;;;;;;;;;;;;;;;21.30;48.63;100976.75;4973909;28;96384;-92
2021/09/24 12:28:54;;;;;;;;;;;;;;;21.07;49.41;100982.00;4973760;28;97961;-92
2021/09/24 12:34:20;;;;;;;;;;;;;;;20.90;50.03;100977.03;4971636;28;97112;-92
2021/09/24 12:42:18;;;;;;;;;;;;;;;20.14;52.53;100979.94;4970053;28;96750;-93
2021/09/24 12:44:57;;;;;;;;;;;;;;;20.39;51.88;100983.56;4973705;28;96730;-92
2021/09/24 12:47:26;;;;;;;;;;;;;;;20.91;50.53;100977.91;4974805;28;96557;-91
2021/09/24 12:49:54;;;;;;;;;;;;;;;20.32;51.95;100967.03;4969361;28;97938;-92
2021/09/24 12:55:12;;;;;;;;;;;;;;;21.17;50.41;100974.13;4955773;28;96558;-92
2021/09/24 13:03:15;;;;;;;;;;;;;;;21.36;49.98;100961.00;4969022;28;98961;-91
2021/09/24 13:08:31;;;;;;;;;;;;;;;21.19;50.66;100966.81;4977719;28;96551;-93
2021/09/24 13:10:59;;;;;;;;;;;;;;;20.69;51.95;100967.88;4975242;28;96988;-90
2021/09/24 13:18:55;;;;;;;;;;;;;;;21.27;50.31;100971.59;4966511;28;97753;-90
2021/09/24 13:24:12;;;;;;;;;;;;;;;20.95;50.91;100971.31;4973380;28;98777;-90
2021/09/24 13:26:48;;;;;;;;;;;;;;;21.16;50.16;100966.19;4981503;28;96683;-88
2021/09/24 13:29:18;;;;;;;;;;;;;;;20.16;53.05;100969.06;4979782;28;96222;-88
2021/09/24 13:42:40;;;;;;;;;;;;;;;21.25;50.11;100969.03;4962994;28;99534;-87
2021/09/24 13:45:08;;;;;;;;;;;;;;;20.66;51.19;100966.31;4981512;28;97633;-86
2021/09/24 13:47:36;;;;;;;;;;;;;;;21.09;50.03;100963.94;4980893;28;96136;-88
2021/09/24 13:52:56;;;;;;;;;;;;;;;21.30;49.92;100956.09;4979820;28;99221;-89
2021/09/24 13:55:22;;;;;;;;;;;;;;;21.42;49.46;100955.16;4985455;28;99756;-86
2021/09/24 14:06:10;;;;;;;;;;;;;;;21.72;48.70;100961.81;4980735;28;98585;-88
2021/09/24 14:11:42;;;;;;;;;;;;;;;21.18;50.28;100953.50;4980792;28;96808;-87
2021/09/24 14:20:35;;;;;;;;;;;;;;;21.85;48.64;100955.34;5095946;27;96566;-81
2021/09/24 14:26:15;;;;;;;;;;;;;;;21.79;49.05;100950.44;5141729;22;96799;-86
2021/09/24 14:29:00;;;;;;;;;;;;;;;22.10;48.21;100950.72;5025047;27;98410;-91
2021/09/24 14:31:36;;;;;;;;;;;;;;;22.07;48.05;100949.13;5019400;28;96874;-91
2021/09/24 14:50:50;;;;;;;;;;;;;;;21.75;49.63;100946.28;5254665;22;100663;-90
2021/09/24 14:53:17;;;;;;;;;;;;;;;21.53;50.19;100943.56;5057029;27;96693;-90
2021/09/24 14:58:20;;;;;;;;;;;;;;;21.53;50.38;100948.94;4979893;22;96955;-88
2021/09/24 15:14:34;;;;;;;;;;;;;;;21.73;49.80;100950.06;4964648;28;96534;-90
2021/09/24 15:19:42;;;;;;;;;;;;;;;21.79;49.57;100952.28;4968855;28;100930;-90
2021/09/24 15:25:04;;;;;;;;;;;;;;;21.98;49.21;100943.66;4972241;28;97218;-92
2021/09/24 15:30:28;;;;;;;;;;;;;;;21.64;50.04;100948.09;4977601;28;98714;-93
2021/09/24 15:32:55;;;;;;;;;;;;;;;21.73;49.92;100956.28;4938331;28;98295;-92
2021/09/24 15:41:12;;;;;;;;;;;;;;;21.23;51.70;100948.63;4957651;28;96545;-92
2021/09/24 15:43:57;;;;;;;;;;;;;;;21.57;50.82;100949.56;4944743;28;96881;-92
2021/09/24 15:49:21;;;;;;;;;;;;;;;21.50;50.92;100951.00;4956356;28;96815;-92
2021/09/24 15:54:28;;;;;;;;;;;;;;;21.90;49.79;100951.44;4954257;28;98716;-93
2021/09/24 15:56:56;;;;;;;;;;;;;;;21.79;50.12;100965.75;4957947;28;95955;-93
2021/09/24 15:59:32;;;;;;;;;;;;;;;21.45;51.34;100963.00;4957430;28;96590;-94
2021/09/24 16:04:40;;;;;;;;;;;;;;;21.57;50.66;100950.41;4945805;28;99094;-92
2021/09/24 16:09:48;;;;;;;;;;;;;;;21.34;52.00;100959.41;4953090;28;97735;-92
2021/09/24 16:12:24;;;;;;;;;;;;;;;21.06;52.76;100950.75;4963661;28;97689;-92
2021/09/24 16:17:42;;;;;;;;;;;;;;;21.58;51.17;100962.91;4956055;28;95933;-91
2021/09/24 16:20:12;;;;;;;;;;;;;;;21.06;52.81;100956.13;4956186;28;96765;-86
2021/09/24 16:22:43;;;;;;;;;;;;;;;21.45;51.81;100967.50;4954541;28;97708;-85
2021/09/24 16:25:14;;;;;;;;;;;;;;;21.64;51.09;100970.47;4962591;28;96590;-85
2021/09/24 16:27:47;;;;;;;;;;;;;;;21.64;51.52;100961.56;4955321;28;96884;-87
2021/09/24 16:30:15;;;;;;;;;;;;;;;21.65;51.18;100965.97;4960871;28;96444;-86
2021/09/24 16:32:43;;;;;;;;;;;;;;;21.69;51.08;100962.03;4942862;28;100305;-86
2021/09/24 16:35:15;;;;;;;;;;;;;;;21.70;51.11;100964.63;4962448;28;100051;-86
2021/09/24 16:43:26;;;;;;;;;;;;;;;21.68;51.30;100965.72;4951678;28;96791;-93
2021/09/24 16:48:49;;;;;;;;;;;;;;;21.73;51.08;100968.88;4954274;28;96525;-90
2021/09/24 16:51:20;;;;;;;;;;;;;;;21.74;51.30;100965.22;4954782;28;97583;-87
2021/09/24 16:56:30;;;;;;;;;;;;;;;21.41;52.21;100966.00;4957175;28;96614;-92
2021/09/24 17:04:29;;;;;;;;;;;;;;;21.45;51.93;100963.00;4959566;28;98966;-87
2021/09/24 17:07:07;;;;;;;;;;;;;;;21.34;52.37;100962.09;4958122;28;100130;-89
2021/09/24 17:09:37;;;;;;;;;;;;;;;21.34;52.32;100967.47;4958970;28;95964;-89
2021/09/24 17:12:29;;;;;;;;;;;;;;;21.59;51.61;100964.63;4957112;28;96691;-89
2021/09/24 17:17:37;;;;;;;;;;;;;;;21.42;52.25;100975.78;4958654;28;96410;-88
2021/09/24 17:20:04;;;;;;;;;;;;;;;21.38;52.33;100968.97;4959895;28;96990;-88
2021/09/24 17:25:19;;;;;;;;;;;;;;;21.58;51.73;100972.78;5015646;28;96420;-90
2021/09/24 17:27:46;;;;;;;;;;;;;;;21.68;51.70;100976.47;5015190;28;99974;-89
2021/09/24 17:30:17;;;;;;;;;;;;;;;21.83;51.18;100978.81;5016309;28;96674;-90
2021/09/24 17:32:51;;;;;;;;;;;;;;;21.68;51.55;100976.47;5010595;28;96676;-89
2021/09/24 17:37:59;;;;;;;;;;;;;;;21.69;51.51;100984.41;5009818;28;96640;-88
2021/09/24 17:40:31;;;;;;;;;;;;;;;21.61;51.87;100986.84;5011107;28;96722;-90
2021/09/24 17:43:00;;;;;;;;;;;;;;;21.79;51.33;100989.94;5011573;28;96657;-90
2021/09/24 17:45:33;;;;;;;;;;;;;;;21.66;51.60;100986.50;5012583;28;96851;-91
2021/09/24 17:50:41;;;;;;;;;;;;;;;21.61;52.06;100994.03;5040898;22;97659;-89
2021/09/24 17:53:13;;;;;;;;;;;;;;;21.69;51.56;100987.09;4953404;28;96687;-88
2021/09/24 17:55:56;;;;;;;;;;;;;;;21.60;51.89;100986.94;4955144;28;99263;-87
2021/09/24 18:01:28;;;;;;;;;;;;;;;21.51;52.25;100998.44;5094093;22;99099;-91
2021/09/24 18:04:04;;;;;;;;;;;;;;;21.47;52.50;100997.78;4961424;28;97131;-88
2021/09/24 18:06:32;;;;;;;;;;;;;;;21.53;52.36;101000.00;4941464;28;97637;-87
2021/09/24 18:09:01;;;;;;;;;;;;;;;21.44;52.59;101001.59;4937720;28;96558;-89
2021/09/24 18:11:53;;;;;;;;;;;;;;;21.07;53.68;101002.63;4956676;28;96348;-88
2021/09/24 18:17:15;;;;;;;;;;;;;;;21.56;52.31;101009.69;4955612;28;96808;-89
2021/09/24 18:19:46;;;;;;;;;;;;;;;21.54;52.50;101009.78;4952742;28;99187;-88
2021/09/24 18:24:54;;;;;;;;;;;;;;;21.71;51.96;101009.38;4972273;28;96838;-89
2021/09/24 18:27:21;;;;;;;;;;;;;;;21.73;51.83;101009.22;4960905;28;98001;-90
2021/09/24 18:37:26;;;;;;;;;;;;;;;21.44;53.03;101023.09;4974589;28;97774;-90
2021/09/24 18:39:57;;;;;;;;;;;;;;;21.64;52.53;101016.19;4973840;28;98399;-89
2021/09/24 18:42:24;;;;;;;;;;;;;;;21.41;53.36;101022.47;4975410;28;98020;-90
2021/09/24 18:50:17;;;;;;;;;;;;;;;21.58;52.88;101024.75;4972803;28;98412;-90
2021/09/24 18:53:03;;;;;;;;;;;;;;;21.66;52.66;101024.97;4979473;28;96214;-89
2021/09/24 18:55:39;;;;;;;;;;;;;;;21.66;52.55;101022.28;4977262;28;96115;-87
2021/09/24 18:58:06;;;;;;;;;;;;;;;21.57;52.80;101022.16;4980652;28;101056;-87
2021/09/24 19:00:37;;;;;;;;;;;;;;;21.40;53.36;101026.97;4980658;28;99841;-87
2021/09/24 19:03:05;;;;;;;;;;;;;;;21.70;52.69;101026.47;4981680;28;95863;-82
2021/09/24 19:05:35;;;;;;;;;;;;;;;21.70;52.60;101031.84;4983020;28;96025;-85
2021/09/24 19:08:02;;;;;;;;;;;;;;;21.51;53.43;101023.50;4977838;28;97694;-86
2021/09/24 19:10:50;;;;;;;;;;;;;;;21.47;53.50;101028.22;4982764;28;96621;-89
2021/09/24 19:13:39;;;;;;;;;;;;;;;21.53;53.20;101015.31;4984339;28;96069;-84